sensor_id;sensor_type;location;lat;lon;timestamp;P1;durP1;ratioP1;P2;durP2;ratioP2
20743;SDS011;56303;52.160;-0.428;2022-07-05T00:01:37;3.40;;;1.93;;
20743;SDS011;56303;52.160;-0.428;2022-07-05T00:04:04;2.33;;;1.90;;
20743;SDS011;56303;52.160;-0.428;2022-07-05T00:06:31;3.33;;;2.10;;
20743;SDS011;56303;52.160;-0.428;2022-07-05T00:08:57;3.87;;;2.23;;
20743;SDS011;56303;52.160;-0.428;2022-07-05T00:11:24;6.10;;;2.33;;
20743;SDS011;56303;52.160;-0.428;2022-07-05T00:13:51;7.03;;;4.47;;
20743;SDS011;56303;52.160;-0.428;2022-07-05T00:16:18;5.63;;;3.43;;
20743;SDS011;56303;52.160;-0.428;2022-07-05T00:18:45;4.83;;;3.03;;
20743;SDS011;56303;52.160;-0.428;2022-07-05T00:21:12;4.80;;;2.73;;
20743;SDS011;56303;52.160;-0.428;2022-07-05T00:23:39;3.43;;;2.43;;
20743;SDS011;56303;52.160;-0.428;2022-07-05T00:26:06;2.63;;;1.87;;
20743;SDS011;56303;52.160;-0.428;2022-07-05T00:28:33;4.60;;;2.10;;
20743;SDS011;56303;52.160;-0.428;2022-07-05T00:30:59;3.27;;;2.20;;
20743;SDS011;56303;52.160;-0.428;2022-07-05T00:33:26;2.83;;;1.90;;
20743;SDS011;56303;52.160;-0.428;2022-07-05T00:35:53;3.57;;;1.90;;
20743;SDS011;56303;52.160;-0.428;2022-07-05T00:38:20;3.23;;;2.23;;
20743;SDS011;56303;52.160;-0.428;2022-07-05T00:40:47;4.83;;;2.30;;
20743;SDS011;56303;52.160;-0.428;2022-07-05T00:43:14;3.90;;;2.33;;
20743;SDS011;56303;52.160;-0.428;2022-07-05T00:45:41;4.20;;;2.40;;
20743;SDS011;56303;52.160;-0.428;2022-07-05T00:48:08;4.23;;;2.10;;
20743;SDS011;56303;52.160;-0.428;2022-07-05T00:50:34;5.37;;;2.33;;
20743;SDS011;56303;52.160;-0.428;2022-07-05T00:53:01;5.53;;;2.77;;
20743;SDS011;56303;52.160;-0.428;2022-07-05T00:55:28;3.63;;;2.53;;
20743;SDS011;56303;52.160;-0.428;2022-07-05T00:57:55;4.13;;;2.40;;
20743;SDS011;56303;52.160;-0.428;2022-07-05T01:00:22;3.23;;;2.10;;
20743;SDS011;56303;52.160;-0.428;2022-07-05T01:02:49;3.43;;;1.83;;
20743;SDS011;56303;52.160;-0.428;2022-07-05T01:05:17;3.33;;;2.23;;
20743;SDS011;56303;52.160;-0.428;2022-07-05T01:07:44;3.93;;;2.17;;
20743;SDS011;56303;52.160;-0.428;2022-07-05T01:10:11;4.43;;;2.20;;
20743;SDS011;56303;52.160;-0.428;2022-07-05T01:12:39;2.80;;;2.00;;
20743;SDS011;56303;52.160;-0.428;2022-07-05T01:15:09;6.47;;;2.30;;
20743;SDS011;56303;52.160;-0.428;2022-07-05T01:17:36;5.50;;;2.63;;
20743;SDS011;56303;52.160;-0.428;2022-07-05T01:20:04;3.67;;;1.77;;
20743;SDS011;56303;52.160;-0.428;2022-07-05T01:22:54;4.60;;;2.23;;
20743;SDS011;56303;52.160;-0.428;2022-07-05T01:25:21;4.57;;;2.10;;
20743;SDS011;56303;52.160;-0.428;2022-07-05T01:27:50;2.60;;;2.27;;
20743;SDS011;56303;52.160;-0.428;2022-07-05T01:30:18;3.37;;;2.17;;
20743;SDS011;56303;52.160;-0.428;2022-07-05T01:32:45;3.07;;;2.17;;
20743;SDS011;56303;52.160;-0.428;2022-07-05T01:35:13;2.97;;;2.10;;
20743;SDS011;56303;52.160;-0.428;2022-07-05T01:37:47;5.40;;;2.67;;
20743;SDS011;56303;52.160;-0.428;2022-07-05T01:40:15;2.90;;;2.27;;
20743;SDS011;56303;52.160;-0.428;2022-07-05T01:42:43;4.27;;;2.57;;
20743;SDS011;56303;52.160;-0.428;2022-07-05T01:45:10;2.60;;;2.00;;
20743;SDS011;56303;52.160;-0.428;2022-07-05T01:47:43;2.27;;;1.80;;
20743;SDS011;56303;52.160;-0.428;2022-07-05T01:50:12;2.90;;;2.10;;
20743;SDS011;56303;52.160;-0.428;2022-07-05T01:52:44;4.90;;;2.23;;
20743;SDS011;56303;52.160;-0.428;2022-07-05T01:55:13;6.07;;;2.43;;
20743;SDS011;56303;52.160;-0.428;2022-07-05T01:57:40;3.67;;;2.40;;
20743;SDS011;56303;52.160;-0.428;2022-07-05T02:00:07;4.07;;;2.03;;
20743;SDS011;56303;52.160;-0.428;2022-07-05T02:02:35;2.77;;;2.03;;
20743;SDS011;56303;52.160;-0.428;2022-07-05T02:05:06;4.33;;;2.10;;
20743;SDS011;56303;52.160;-0.428;2022-07-05T02:07:33;2.97;;;2.10;;
20743;SDS011;56303;52.160;-0.428;2022-07-05T02:10:00;2.93;;;2.03;;
20743;SDS011;56303;52.160;-0.428;2022-07-05T02:12:27;3.63;;;2.07;;
20743;SDS011;56303;52.160;-0.428;2022-07-05T02:14:54;3.77;;;2.10;;
20743;SDS011;56303;52.160;-0.428;2022-07-05T02:17:21;3.43;;;1.80;;
20743;SDS011;56303;52.160;-0.428;2022-07-05T02:19:47;3.10;;;2.20;;
20743;SDS011;56303;52.160;-0.428;2022-07-05T02:22:14;2.40;;;1.70;;
20743;SDS011;56303;52.160;-0.428;2022-07-05T02:24:42;5.87;;;2.37;;
20743;SDS011;56303;52.160;-0.428;2022-07-05T02:27:09;3.53;;;1.97;;
20743;SDS011;56303;52.160;-0.428;2022-07-05T02:29:36;4.83;;;2.00;;
20743;SDS011;56303;52.160;-0.428;2022-07-05T02:32:03;2.87;;;1.77;;
20743;SDS011;56303;52.160;-0.428;2022-07-05T02:34:31;3.90;;;1.97;;
20743;SDS011;56303;52.160;-0.428;2022-07-05T02:36:58;2.67;;;1.97;;
20743;SDS011;56303;52.160;-0.428;2022-07-05T02:39:24;4.07;;;2.30;;
20743;SDS011;56303;52.160;-0.428;2022-07-05T02:41:51;4.63;;;2.07;;
20743;SDS011;56303;52.160;-0.428;2022-07-05T02:44:18;2.53;;;1.80;;
20743;SDS011;56303;52.160;-0.428;2022-07-05T02:46:45;3.47;;;1.70;;
20743;SDS011;56303;52.160;-0.428;2022-07-05T02:49:12;3.17;;;2.20;;
20743;SDS011;56303;52.160;-0.428;2022-07-05T02:51:39;2.77;;;1.90;;
20743;SDS011;56303;52.160;-0.428;2022-07-05T02:54:05;2.43;;;1.50;;
20743;SDS011;56303;52.160;-0.428;2022-07-05T02:56:32;3.30;;;2.10;;
20743;SDS011;56303;52.160;-0.428;2022-07-05T02:58:59;3.30;;;2.23;;
20743;SDS011;56303;52.160;-0.428;2022-07-05T03:01:26;3.63;;;2.13;;
20743;SDS011;56303;52.160;-0.428;2022-07-05T03:03:56;3.53;;;2.30;;
20743;SDS011;56303;52.160;-0.428;2022-07-05T03:06:25;4.67;;;2.33;;
20743;SDS011;56303;52.160;-0.428;2022-07-05T03:08:52;6.07;;;2.03;;
20743;SDS011;56303;52.160;-0.428;2022-07-05T03:11:18;3.30;;;2.20;;
20743;SDS011;56303;52.160;-0.428;2022-07-05T03:13:46;4.27;;;2.23;;
20743;SDS011;56303;52.160;-0.428;2022-07-05T03:16:14;3.00;;;1.87;;
20743;SDS011;56303;52.160;-0.428;2022-07-05T03:18:41;2.50;;;1.80;;
20743;SDS011;56303;52.160;-0.428;2022-07-05T03:21:07;2.23;;;1.70;;
20743;SDS011;56303;52.160;-0.428;2022-07-05T03:23:34;3.17;;;2.47;;
20743;SDS011;56303;52.160;-0.428;2022-07-05T03:26:01;2.60;;;2.03;;
20743;SDS011;56303;52.160;-0.428;2022-07-05T03:28:28;3.40;;;2.40;;
20743;SDS011;56303;52.160;-0.428;2022-07-05T03:30:55;2.37;;;2.10;;
20743;SDS011;56303;52.160;-0.428;2022-07-05T03:33:22;2.33;;;2.10;;
20743;SDS011;56303;52.160;-0.428;2022-07-05T03:35:54;5.03;;;2.00;;
20743;SDS011;56303;52.160;-0.428;2022-07-05T03:38:21;2.77;;;2.00;;
20743;SDS011;56303;52.160;-0.428;2022-07-05T03:40:48;3.23;;;2.00;;
20743;SDS011;56303;52.160;-0.428;2022-07-05T03:43:15;2.50;;;1.80;;
20743;SDS011;56303;52.160;-0.428;2022-07-05T03:45:42;4.57;;;2.20;;
20743;SDS011;56303;52.160;-0.428;2022-07-05T03:48:09;2.17;;;1.80;;
20743;SDS011;56303;52.160;-0.428;2022-07-05T03:50:55;2.57;;;2.00;;
20743;SDS011;56303;52.160;-0.428;2022-07-05T03:53:22;2.80;;;2.23;;
20743;SDS011;56303;52.160;-0.428;2022-07-05T03:55:49;2.80;;;2.10;;
20743;SDS011;56303;52.160;-0.428;2022-07-05T03:58:16;2.90;;;2.30;;
20743;SDS011;56303;52.160;-0.428;2022-07-05T04:00:43;2.30;;;2.00;;
20743;SDS011;56303;52.160;-0.428;2022-07-05T04:03:10;6.33;;;2.33;;
20743;SDS011;56303;52.160;-0.428;2022-07-05T04:05:37;3.63;;;2.13;;
20743;SDS011;56303;52.160;-0.428;2022-07-05T04:08:05;1.57;;;1.43;;
20743;SDS011;56303;52.160;-0.428;2022-07-05T04:10:32;3.10;;;2.00;;
20743;SDS011;56303;52.160;-0.428;2022-07-05T04:12:59;3.07;;;1.63;;
20743;SDS011;56303;52.160;-0.428;2022-07-05T04:15:25;4.30;;;2.47;;
20743;SDS011;56303;52.160;-0.428;2022-07-05T04:17:53;3.07;;;1.90;;
20743;SDS011;56303;52.160;-0.428;2022-07-05T04:20:22;3.97;;;2.00;;
20743;SDS011;56303;52.160;-0.428;2022-07-05T04:22:50;5.90;;;2.30;;
20743;SDS011;56303;52.160;-0.428;2022-07-05T04:25:18;3.13;;;2.13;;
20743;SDS011;56303;52.160;-0.428;2022-07-05T04:27:46;5.27;;;2.13;;
20743;SDS011;56303;52.160;-0.428;2022-07-05T04:30:14;3.63;;;2.57;;
20743;SDS011;56303;52.160;-0.428;2022-07-05T04:32:42;4.87;;;2.20;;
20743;SDS011;56303;52.160;-0.428;2022-07-05T04:35:10;3.23;;;2.43;;
20743;SDS011;56303;52.160;-0.428;2022-07-05T04:37:37;3.50;;;2.20;;
20743;SDS011;56303;52.160;-0.428;2022-07-05T04:40:05;4.40;;;2.63;;
20743;SDS011;56303;52.160;-0.428;2022-07-05T04:42:33;4.20;;;2.50;;
20743;SDS011;56303;52.160;-0.428;2022-07-05T04:44:59;4.97;;;2.70;;
20743;SDS011;56303;52.160;-0.428;2022-07-05T04:47:26;4.77;;;2.47;;
20743;SDS011;56303;52.160;-0.428;2022-07-05T04:49:53;4.77;;;3.00;;
20743;SDS011;56303;52.160;-0.428;2022-07-05T04:52:23;4.40;;;2.47;;
20743;SDS011;56303;52.160;-0.428;2022-07-05T04:54:50;2.83;;;2.17;;
20743;SDS011;56303;52.160;-0.428;2022-07-05T04:57:17;4.23;;;2.10;;
20743;SDS011;56303;52.160;-0.428;2022-07-05T04:59:44;4.37;;;2.30;;
20743;SDS011;56303;52.160;-0.428;2022-07-05T05:02:12;3.17;;;2.30;;
20743;SDS011;56303;52.160;-0.428;2022-07-05T05:04:39;3.87;;;2.20;;
20743;SDS011;56303;52.160;-0.428;2022-07-05T05:07:06;6.27;;;2.40;;
20743;SDS011;56303;52.160;-0.428;2022-07-05T05:09:33;2.20;;;2.00;;
20743;SDS011;56303;52.160;-0.428;2022-07-05T05:12:00;4.87;;;2.53;;
20743;SDS011;56303;52.160;-0.428;2022-07-05T05:14:27;3.63;;;2.13;;
20743;SDS011;56303;52.160;-0.428;2022-07-05T05:16:54;3.20;;;2.23;;
20743;SDS011;56303;52.160;-0.428;2022-07-05T05:19:21;4.30;;;2.47;;
20743;SDS011;56303;52.160;-0.428;2022-07-05T05:21:48;6.77;;;2.20;;
20743;SDS011;56303;52.160;-0.428;2022-07-05T05:24:14;4.47;;;2.43;;
20743;SDS011;56303;52.160;-0.428;2022-07-05T05:26:41;3.27;;;1.93;;
20743;SDS011;56303;52.160;-0.428;2022-07-05T05:29:08;3.70;;;2.50;;
20743;SDS011;56303;52.160;-0.428;2022-07-05T05:31:35;4.50;;;2.33;;
20743;SDS011;56303;52.160;-0.428;2022-07-05T05:34:02;6.23;;;2.20;;
20743;SDS011;56303;52.160;-0.428;2022-07-05T05:36:28;4.97;;;2.73;;
20743;SDS011;56303;52.160;-0.428;2022-07-05T05:38:55;3.53;;;2.07;;
20743;SDS011;56303;52.160;-0.428;2022-07-05T05:41:22;3.93;;;1.90;;
20743;SDS011;56303;52.160;-0.428;2022-07-05T05:43:49;3.97;;;2.57;;
20743;SDS011;56303;52.160;-0.428;2022-07-05T05:46:16;3.07;;;2.03;;
20743;SDS011;56303;52.160;-0.428;2022-07-05T05:48:42;3.40;;;2.10;;
20743;SDS011;56303;52.160;-0.428;2022-07-05T05:51:09;3.10;;;2.30;;
20743;SDS011;56303;52.160;-0.428;2022-07-05T05:53:36;2.43;;;2.00;;
20743;SDS011;56303;52.160;-0.428;2022-07-05T05:56:03;2.73;;;2.10;;
20743;SDS011;56303;52.160;-0.428;2022-07-05T05:58:30;5.10;;;2.50;;
20743;SDS011;56303;52.160;-0.428;2022-07-05T06:00:57;2.70;;;2.00;;
20743;SDS011;56303;52.160;-0.428;2022-07-05T06:03:25;4.63;;;3.37;;
20743;SDS011;56303;52.160;-0.428;2022-07-05T06:05:53;3.13;;;2.00;;
20743;SDS011;56303;52.160;-0.428;2022-07-05T06:08:20;3.00;;;1.90;;
20743;SDS011;56303;52.160;-0.428;2022-07-05T06:10:50;4.03;;;1.80;;
20743;SDS011;56303;52.160;-0.428;2022-07-05T06:13:24;3.17;;;2.10;;
20743;SDS011;56303;52.160;-0.428;2022-07-05T06:15:54;7.13;;;2.20;;
20743;SDS011;56303;52.160;-0.428;2022-07-05T06:18:21;4.60;;;2.57;;
20743;SDS011;56303;52.160;-0.428;2022-07-05T06:20:48;4.03;;;2.27;;
20743;SDS011;56303;52.160;-0.428;2022-07-05T06:23:15;5.30;;;2.50;;
20743;SDS011;56303;52.160;-0.428;2022-07-05T06:25:42;4.03;;;1.90;;
20743;SDS011;56303;52.160;-0.428;2022-07-05T06:28:09;5.90;;;1.90;;
20743;SDS011;56303;52.160;-0.428;2022-07-05T06:30:36;2.90;;;2.07;;
20743;SDS011;56303;52.160;-0.428;2022-07-05T06:33:04;4.27;;;2.47;;
20743;SDS011;56303;52.160;-0.428;2022-07-05T06:35:30;3.73;;;1.83;;
20743;SDS011;56303;52.160;-0.428;2022-07-05T06:37:59;3.83;;;1.90;;
20743;SDS011;56303;52.160;-0.428;2022-07-05T06:40:31;4.20;;;2.10;;
20743;SDS011;56303;52.160;-0.428;2022-07-05T06:43:01;3.50;;;2.03;;
20743;SDS011;56303;52.160;-0.428;2022-07-05T06:45:29;5.90;;;2.00;;
20743;SDS011;56303;52.160;-0.428;2022-07-05T06:47:57;2.70;;;2.00;;
20743;SDS011;56303;52.160;-0.428;2022-07-05T06:50:25;3.53;;;1.93;;
20743;SDS011;56303;52.160;-0.428;2022-07-05T06:52:54;3.90;;;1.77;;
20743;SDS011;56303;52.160;-0.428;2022-07-05T06:55:21;3.17;;;1.63;;
20743;SDS011;56303;52.160;-0.428;2022-07-05T06:57:49;4.13;;;1.87;;
20743;SDS011;56303;52.160;-0.428;2022-07-05T07:00:39;7.03;;;2.30;;
20743;SDS011;56303;52.160;-0.428;2022-07-05T07:03:27;6.63;;;1.90;;
20743;SDS011;56303;52.160;-0.428;2022-07-05T07:06:14;4.30;;;1.73;;
20743;SDS011;56303;52.160;-0.428;2022-07-05T07:08:42;3.67;;;1.90;;
20743;SDS011;56303;52.160;-0.428;2022-07-05T07:11:28;3.73;;;1.80;;
20743;SDS011;56303;52.160;-0.428;2022-07-05T07:13:55;4.10;;;2.20;;
20743;SDS011;56303;52.160;-0.428;2022-07-05T07:16:21;2.80;;;1.63;;
20743;SDS011;56303;52.160;-0.428;2022-07-05T07:18:48;3.57;;;1.97;;
20743;SDS011;56303;52.160;-0.428;2022-07-05T07:21:35;5.13;;;2.30;;
20743;SDS011;56303;52.160;-0.428;2022-07-05T07:24:02;3.50;;;1.90;;
20743;SDS011;56303;52.160;-0.428;2022-07-05T07:26:29;4.73;;;2.13;;
20743;SDS011;56303;52.160;-0.428;2022-07-05T07:29:16;6.27;;;1.97;;
20743;SDS011;56303;52.160;-0.428;2022-07-05T07:31:43;7.17;;;2.70;;
20743;SDS011;56303;52.160;-0.428;2022-07-05T07:34:10;4.73;;;2.13;;
20743;SDS011;56303;52.160;-0.428;2022-07-05T07:36:37;3.73;;;1.93;;
20743;SDS011;56303;52.160;-0.428;2022-07-05T07:39:04;4.80;;;2.00;;
20743;SDS011;56303;52.160;-0.428;2022-07-05T07:41:31;5.03;;;1.80;;
20743;SDS011;56303;52.160;-0.428;2022-07-05T07:43:58;4.50;;;2.00;;
20743;SDS011;56303;52.160;-0.428;2022-07-05T07:46:25;6.27;;;2.47;;
20743;SDS011;56303;52.160;-0.428;2022-07-05T07:48:54;2.40;;;1.47;;
20743;SDS011;56303;52.160;-0.428;2022-07-05T07:51:20;7.43;;;2.17;;
20743;SDS011;56303;52.160;-0.428;2022-07-05T07:53:48;6.70;;;2.43;;
20743;SDS011;56303;52.160;-0.428;2022-07-05T07:56:14;4.77;;;2.07;;
20743;SDS011;56303;52.160;-0.428;2022-07-05T07:58:42;5.63;;;1.80;;
20743;SDS011;56303;52.160;-0.428;2022-07-05T08:01:09;2.93;;;1.80;;
20743;SDS011;56303;52.160;-0.428;2022-07-05T08:03:37;6.80;;;1.60;;
20743;SDS011;56303;52.160;-0.428;2022-07-05T08:06:05;3.10;;;1.67;;
20743;SDS011;56303;52.160;-0.428;2022-07-05T08:08:34;6.60;;;2.13;;
20743;SDS011;56303;52.160;-0.428;2022-07-05T08:11:01;2.87;;;1.63;;
20743;SDS011;56303;52.160;-0.428;2022-07-05T08:13:29;5.53;;;2.17;;
20743;SDS011;56303;52.160;-0.428;2022-07-05T08:15:56;5.83;;;1.90;;
20743;SDS011;56303;52.160;-0.428;2022-07-05T08:18:23;5.90;;;2.00;;
20743;SDS011;56303;52.160;-0.428;2022-07-05T08:21:09;5.03;;;1.60;;
20743;SDS011;56303;52.160;-0.428;2022-07-05T08:23:55;5.20;;;1.33;;
20743;SDS011;56303;52.160;-0.428;2022-07-05T08:26:22;4.57;;;1.80;;
20743;SDS011;56303;52.160;-0.428;2022-07-05T08:28:49;3.03;;;1.37;;
20743;SDS011;56303;52.160;-0.428;2022-07-05T08:31:34;5.83;;;2.03;;
20743;SDS011;56303;52.160;-0.428;2022-07-05T08:34:06;5.83;;;1.67;;
20743;SDS011;56303;52.160;-0.428;2022-07-05T08:36:33;6.03;;;1.87;;
20743;SDS011;56303;52.160;-0.428;2022-07-05T08:39:00;3.50;;;1.30;;
20743;SDS011;56303;52.160;-0.428;2022-07-05T08:41:27;2.20;;;1.40;;
20743;SDS011;56303;52.160;-0.428;2022-07-05T08:43:55;3.60;;;1.50;;
20743;SDS011;56303;52.160;-0.428;2022-07-05T08:46:24;4.77;;;1.60;;
20743;SDS011;56303;52.160;-0.428;2022-07-05T08:48:51;6.00;;;1.90;;
20743;SDS011;56303;52.160;-0.428;2022-07-05T08:51:20;5.43;;;2.00;;
20743;SDS011;56303;52.160;-0.428;2022-07-05T08:53:49;3.27;;;2.53;;
20743;SDS011;56303;52.160;-0.428;2022-07-05T08:56:17;6.87;;;3.77;;
20743;SDS011;56303;52.160;-0.428;2022-07-05T08:58:59;5.67;;;4.27;;
20743;SDS011;56303;52.160;-0.428;2022-07-05T09:01:26;5.00;;;3.60;;
20743;SDS011;56303;52.160;-0.428;2022-07-05T09:03:58;5.40;;;3.37;;
20743;SDS011;56303;52.160;-0.428;2022-07-05T09:06:27;3.30;;;2.13;;
20743;SDS011;56303;52.160;-0.428;2022-07-05T09:08:55;5.43;;;2.70;;
20743;SDS011;56303;52.160;-0.428;2022-07-05T09:11:25;4.23;;;2.20;;
20743;SDS011;56303;52.160;-0.428;2022-07-05T09:14:00;4.23;;;1.90;;
20743;SDS011;56303;52.160;-0.428;2022-07-05T09:16:50;3.97;;;2.03;;
20743;SDS011;56303;52.160;-0.428;2022-07-05T09:19:18;4.13;;;1.80;;
20743;SDS011;56303;52.160;-0.428;2022-07-05T09:21:45;7.07;;;1.90;;
20743;SDS011;56303;52.160;-0.428;2022-07-05T09:24:12;5.17;;;1.90;;
20743;SDS011;56303;52.160;-0.428;2022-07-05T09:26:40;5.07;;;1.60;;
20743;SDS011;56303;52.160;-0.428;2022-07-05T09:29:12;6.20;;;2.07;;
20743;SDS011;56303;52.160;-0.428;2022-07-05T09:32:02;3.00;;;1.27;;
20743;SDS011;56303;52.160;-0.428;2022-07-05T09:34:30;2.70;;;1.30;;
20743;SDS011;56303;52.160;-0.428;2022-07-05T09:37:00;3.37;;;1.60;;
20743;SDS011;56303;52.160;-0.428;2022-07-05T09:44:53;7.97;;;1.50;;
20743;SDS011;56303;52.160;-0.428;2022-07-05T09:47:21;3.70;;;1.70;;
20743;SDS011;56303;52.160;-0.428;2022-07-05T09:49:51;5.27;;;1.57;;
20743;SDS011;56303;52.160;-0.428;2022-07-05T09:57:38;2.80;;;1.57;;
20743;SDS011;56303;52.160;-0.428;2022-07-05T10:02:41;6.47;;;1.77;;
20743;SDS011;56303;52.160;-0.428;2022-07-05T10:07:43;3.17;;;1.73;;
20743;SDS011;56303;52.160;-0.428;2022-07-05T10:10:13;2.93;;;1.50;;
20743;SDS011;56303;52.160;-0.428;2022-07-05T10:12:41;2.70;;;1.30;;
20743;SDS011;56303;52.160;-0.428;2022-07-05T10:15:10;1.73;;;1.10;;
20743;SDS011;56303;52.160;-0.428;2022-07-05T10:17:44;2.40;;;1.37;;
20743;SDS011;56303;52.160;-0.428;2022-07-05T10:20:14;5.50;;;1.43;;
20743;SDS011;56303;52.160;-0.428;2022-07-05T10:22:46;5.37;;;1.37;;
20743;SDS011;56303;52.160;-0.428;2022-07-05T10:25:14;2.87;;;1.53;;
20743;SDS011;56303;52.160;-0.428;2022-07-05T10:27:41;1.83;;;1.00;;
20743;SDS011;56303;52.160;-0.428;2022-07-05T10:30:09;3.47;;;1.23;;
20743;SDS011;56303;52.160;-0.428;2022-07-05T10:32:37;1.73;;;1.30;;
20743;SDS011;56303;52.160;-0.428;2022-07-05T10:35:05;2.63;;;1.07;;
20743;SDS011;56303;52.160;-0.428;2022-07-05T10:37:33;2.43;;;0.90;;
20743;SDS011;56303;52.160;-0.428;2022-07-05T10:40:02;3.97;;;1.33;;
20743;SDS011;56303;52.160;-0.428;2022-07-05T10:42:33;2.97;;;1.53;;
20743;SDS011;56303;52.160;-0.428;2022-07-05T10:50:45;2.97;;;1.27;;
20743;SDS011;56303;52.160;-0.428;2022-07-05T10:55:55;3.50;;;1.53;;
20743;SDS011;56303;52.160;-0.428;2022-07-05T10:58:25;2.57;;;1.07;;
20743;SDS011;56303;52.160;-0.428;2022-07-05T11:06:19;2.97;;;1.70;;
20743;SDS011;56303;52.160;-0.428;2022-07-05T11:11:26;4.77;;;1.80;;
20743;SDS011;56303;52.160;-0.428;2022-07-05T11:16:47;2.00;;;1.60;;
20743;SDS011;56303;52.160;-0.428;2022-07-05T11:19:16;2.23;;;1.63;;
20743;SDS011;56303;52.160;-0.428;2022-07-05T11:22:03;3.80;;;2.00;;
20743;SDS011;56303;52.160;-0.428;2022-07-05T11:24:32;3.43;;;1.90;;
20743;SDS011;56303;52.160;-0.428;2022-07-05T11:27:04;2.47;;;1.60;;
20743;SDS011;56303;52.160;-0.428;2022-07-05T11:29:42;4.07;;;1.80;;
20743;SDS011;56303;52.160;-0.428;2022-07-05T11:32:13;3.37;;;1.80;;
20743;SDS011;56303;52.160;-0.428;2022-07-05T11:34:43;3.83;;;1.47;;
20743;SDS011;56303;52.160;-0.428;2022-07-05T11:37:18;4.17;;;1.53;;
20743;SDS011;56303;52.160;-0.428;2022-07-05T11:42:36;5.07;;;1.80;;
20743;SDS011;56303;52.160;-0.428;2022-07-05T11:45:05;2.20;;;1.43;;
20743;SDS011;56303;52.160;-0.428;2022-07-05T11:47:34;3.03;;;1.50;;
20743;SDS011;56303;52.160;-0.428;2022-07-05T11:50:08;3.63;;;1.27;;
20743;SDS011;56303;52.160;-0.428;2022-07-05T11:52:37;3.67;;;1.83;;
20743;SDS011;56303;52.160;-0.428;2022-07-05T11:55:06;2.70;;;1.70;;
20743;SDS011;56303;52.160;-0.428;2022-07-05T11:57:35;5.27;;;1.93;;
20743;SDS011;56303;52.160;-0.428;2022-07-05T12:00:03;2.93;;;1.37;;
20743;SDS011;56303;52.160;-0.428;2022-07-05T12:02:31;1.70;;;0.97;;
20743;SDS011;56303;52.160;-0.428;2022-07-05T12:04:57;3.43;;;1.00;;
20743;SDS011;56303;52.160;-0.428;2022-07-05T12:09:55;5.50;;;1.77;;
20743;SDS011;56303;52.160;-0.428;2022-07-05T12:12:41;1.93;;;1.07;;
20743;SDS011;56303;52.160;-0.428;2022-07-05T12:15:12;1.40;;;0.63;;
20743;SDS011;56303;52.160;-0.428;2022-07-05T12:17:40;1.27;;;0.70;;
20743;SDS011;56303;52.160;-0.428;2022-07-05T12:20:09;3.13;;;0.97;;
20743;SDS011;56303;52.160;-0.428;2022-07-05T12:22:41;1.50;;;0.60;;
20743;SDS011;56303;52.160;-0.428;2022-07-05T12:25:13;0.77;;;0.50;;
20743;SDS011;56303;52.160;-0.428;2022-07-05T12:27:43;1.87;;;1.00;;
20743;SDS011;56303;52.160;-0.428;2022-07-05T12:30:10;1.07;;;0.40;;
20743;SDS011;56303;52.160;-0.428;2022-07-05T12:35:28;2.77;;;1.10;;
20743;SDS011;56303;52.160;-0.428;2022-07-05T12:38:08;1.53;;;0.90;;
20743;SDS011;56303;52.160;-0.428;2022-07-05T12:40:49;3.37;;;1.73;;
20743;SDS011;56303;52.160;-0.428;2022-07-05T12:43:23;2.73;;;1.00;;
20743;SDS011;56303;52.160;-0.428;2022-07-05T12:46:00;2.83;;;1.20;;
20743;SDS011;56303;52.160;-0.428;2022-07-05T12:48:30;3.50;;;1.40;;
20743;SDS011;56303;52.160;-0.428;2022-07-05T12:51:01;3.27;;;1.43;;
20743;SDS011;56303;52.160;-0.428;2022-07-05T12:53:45;1.87;;;1.27;;
20743;SDS011;56303;52.160;-0.428;2022-07-05T12:56:31;1.80;;;1.30;;
20743;SDS011;56303;52.160;-0.428;2022-07-05T12:59:37;3.37;;;1.30;;
20743;SDS011;56303;52.160;-0.428;2022-07-05T13:02:05;3.33;;;1.23;;
20743;SDS011;56303;52.160;-0.428;2022-07-05T13:04:32;1.47;;;1.20;;
20743;SDS011;56303;52.160;-0.428;2022-07-05T13:09:42;2.20;;;1.47;;
20743;SDS011;56303;52.160;-0.428;2022-07-05T13:14:48;4.03;;;1.40;;
20743;SDS011;56303;52.160;-0.428;2022-07-05T13:17:16;3.53;;;1.40;;
20743;SDS011;56303;52.160;-0.428;2022-07-05T13:19:48;2.97;;;1.53;;
20743;SDS011;56303;52.160;-0.428;2022-07-05T13:22:16;2.70;;;1.57;;
20743;SDS011;56303;52.160;-0.428;2022-07-05T13:24:44;3.03;;;1.23;;
20743;SDS011;56303;52.160;-0.428;2022-07-05T13:27:12;3.87;;;1.77;;
20743;SDS011;56303;52.160;-0.428;2022-07-05T13:29:39;2.63;;;1.57;;
20743;SDS011;56303;52.160;-0.428;2022-07-05T13:32:06;2.50;;;1.40;;
20743;SDS011;56303;52.160;-0.428;2022-07-05T13:34:34;1.40;;;1.30;;
20743;SDS011;56303;52.160;-0.428;2022-07-05T13:37:00;2.73;;;1.40;;
20743;SDS011;56303;52.160;-0.428;2022-07-05T13:39:27;3.50;;;1.87;;
20743;SDS011;56303;52.160;-0.428;2022-07-05T13:41:56;3.40;;;1.40;;
20743;SDS011;56303;52.160;-0.428;2022-07-05T13:44:23;1.97;;;1.27;;
20743;SDS011;56303;52.160;-0.428;2022-07-05T13:46:50;2.50;;;1.27;;
20743;SDS011;56303;52.160;-0.428;2022-07-05T13:49:18;2.83;;;1.40;;
20743;SDS011;56303;52.160;-0.428;2022-07-05T13:51:46;3.37;;;1.73;;
20743;SDS011;56303;52.160;-0.428;2022-07-05T13:54:13;3.30;;;1.43;;
20743;SDS011;56303;52.160;-0.428;2022-07-05T13:56:40;4.20;;;1.60;;
20743;SDS011;56303;52.160;-0.428;2022-07-05T13:59:08;2.33;;;1.10;;
20743;SDS011;56303;52.160;-0.428;2022-07-05T14:01:35;1.20;;;1.10;;
20743;SDS011;56303;52.160;-0.428;2022-07-05T14:04:02;2.10;;;1.33;;
20743;SDS011;56303;52.160;-0.428;2022-07-05T14:06:30;4.57;;;1.40;;
20743;SDS011;56303;52.160;-0.428;2022-07-05T14:08:58;2.83;;;1.20;;
20743;SDS011;56303;52.160;-0.428;2022-07-05T14:11:26;3.87;;;1.40;;
20743;SDS011;56303;52.160;-0.428;2022-07-05T14:13:53;2.95;;;1.60;;
20743;SDS011;56303;52.160;-0.428;2022-07-05T14:16:20;2.22;;;1.83;;
20743;SDS011;56303;52.160;-0.428;2022-07-05T14:18:48;2.20;;;1.42;;
20743;SDS011;56303;52.160;-0.428;2022-07-05T14:21:17;4.13;;;2.08;;
20743;SDS011;56303;52.160;-0.428;2022-07-05T14:23:52;1.50;;;1.40;;
20743;SDS011;56303;52.160;-0.428;2022-07-05T14:26:19;5.13;;;1.23;;
20743;SDS011;56303;52.160;-0.428;2022-07-05T14:28:46;1.25;;;1.15;;
20743;SDS011;56303;52.160;-0.428;2022-07-05T14:31:12;3.47;;;1.67;;
20743;SDS011;56303;52.160;-0.428;2022-07-05T14:33:39;2.50;;;1.75;;
20743;SDS011;56303;52.160;-0.428;2022-07-05T14:36:07;3.05;;;1.77;;
20743;SDS011;56303;52.160;-0.428;2022-07-05T14:38:34;3.28;;;1.52;;
20743;SDS011;56303;52.160;-0.428;2022-07-05T14:41:01;3.00;;;1.58;;
20743;SDS011;56303;52.160;-0.428;2022-07-05T14:43:28;3.22;;;1.35;;
20743;SDS011;56303;52.160;-0.428;2022-07-05T14:45:55;2.83;;;1.33;;
20743;SDS011;56303;52.160;-0.428;2022-07-05T14:48:22;2.30;;;1.67;;
20743;SDS011;56303;52.160;-0.428;2022-07-05T14:50:49;3.97;;;1.60;;
20743;SDS011;56303;52.160;-0.428;2022-07-05T14:53:24;2.37;;;1.60;;
20743;SDS011;56303;52.160;-0.428;2022-07-05T14:55:51;1.80;;;1.33;;
20743;SDS011;56303;52.160;-0.428;2022-07-05T14:58:18;4.70;;;1.80;;
20743;SDS011;56303;52.160;-0.428;2022-07-05T15:00:45;3.78;;;1.38;;
20743;SDS011;56303;52.160;-0.428;2022-07-05T15:03:12;3.30;;;1.55;;
20743;SDS011;56303;52.160;-0.428;2022-07-05T15:05:39;2.20;;;1.63;;
20743;SDS011;56303;52.160;-0.428;2022-07-05T15:08:06;3.13;;;1.30;;
20743;SDS011;56303;52.160;-0.428;2022-07-05T15:10:33;2.10;;;1.40;;
20743;SDS011;56303;52.160;-0.428;2022-07-05T15:13:00;3.43;;;1.80;;
20743;SDS011;56303;52.160;-0.428;2022-07-05T15:15:27;4.22;;;1.50;;
20743;SDS011;56303;52.160;-0.428;2022-07-05T15:17:54;2.30;;;1.50;;
20743;SDS011;56303;52.160;-0.428;2022-07-05T15:20:23;2.03;;;1.35;;
20743;SDS011;56303;52.160;-0.428;2022-07-05T15:22:50;4.13;;;1.40;;
20743;SDS011;56303;52.160;-0.428;2022-07-05T15:25:17;2.13;;;1.13;;
20743;SDS011;56303;52.160;-0.428;2022-07-05T15:27:44;3.03;;;1.40;;
20743;SDS011;56303;52.160;-0.428;2022-07-05T15:30:11;2.57;;;1.40;;
20743;SDS011;56303;52.160;-0.428;2022-07-05T15:32:41;3.77;;;1.50;;